createdAt,value
2022-10-06T00:03:51.326Z,1024.5
2022-10-06T00:08:53.424Z,1024.5
2022-10-06T00:13:51.909Z,1024.6
2022-10-06T00:18:51.589Z,1024.6
2022-10-06T00:23:51.733Z,1024.7
2022-10-06T00:28:51.765Z,1024.8
2022-10-06T00:33:51.922Z,1024.9
2022-10-06T00:38:52.247Z,1024.9
2022-10-06T00:43:54.472Z,1025.0
2022-10-06T00:48:52.015Z,1025.1
2022-10-06T00:53:52.096Z,1025.1
2022-10-06T00:58:52.168Z,1025.2
2022-10-06T01:03:52.229Z,1025.3
2022-10-06T01:08:52.307Z,1025.4
2022-10-06T01:13:56.377Z,1025.4
2022-10-06T01:28:52.479Z,1025.5
2022-10-06T01:33:52.533Z,1025.5
2022-10-06T01:38:54.587Z,1025.6
2022-10-06T01:43:52.622Z,1025.7
2022-10-06T01:48:55.178Z,1025.7
2022-10-06T01:53:52.689Z,1025.8
2022-10-06T01:58:52.711Z,1025.8
2022-10-06T02:08:52.781Z,1025.9
2022-10-06T02:13:56.811Z,1025.9
2022-10-06T02:18:52.809Z,1025.9
2022-10-06T02:23:52.837Z,1026.0
2022-10-06T02:28:52.976Z,1026.0
2022-10-06T02:33:52.867Z,1026.1
2022-10-06T02:38:52.873Z,1026.1
2022-10-06T02:43:52.855Z,1026.2
2022-10-06T02:48:52.873Z,1026.2
2022-10-06T02:53:52.909Z,1026.3
2022-10-06T02:58:52.918Z,1026.3
2022-10-06T03:03:52.966Z,1026.3
2022-10-06T03:08:52.903Z,1026.4
2022-10-06T03:13:52.904Z,1026.4
2022-10-06T03:18:52.880Z,1026.5
2022-10-06T03:23:52.880Z,1026.5
2022-10-06T03:28:52.879Z,1026.5
2022-10-06T03:33:52.891Z,1026.6
2022-10-06T03:38:52.874Z,1026.7
2022-10-06T03:43:52.839Z,1026.7
2022-10-06T03:48:52.851Z,1026.7
2022-10-06T03:53:52.867Z,1026.8
2022-10-06T03:58:56.828Z,1026.7
2022-10-06T04:03:52.868Z,1026.8
2022-10-06T04:08:52.888Z,1026.9
2022-10-06T04:18:52.900Z,1027.0
2022-10-06T04:23:52.801Z,1027.0
2022-10-06T04:28:52.816Z,1027.1
2022-10-06T04:33:56.771Z,1027.1
2022-10-06T04:38:52.800Z,1027.1
2022-10-06T04:43:52.759Z,1027.2
2022-10-06T04:53:52.790Z,1027.4
2022-10-06T04:58:52.701Z,1027.4
2022-10-06T05:03:52.667Z,1027.3
2022-10-06T05:08:52.674Z,1027.3
2022-10-06T05:13:52.674Z,1027.4
2022-10-06T05:18:52.758Z,1027.4
2022-10-06T05:23:52.624Z,1027.5
2022-10-06T05:28:52.709Z,1027.5
2022-10-06T05:33:55.112Z,1027.6
2022-10-06T05:38:56.639Z,1027.7
2022-10-06T05:43:52.560Z,1027.8
2022-10-06T05:48:52.605Z,1027.8
2022-10-06T05:53:52.558Z,1027.9
2022-10-06T05:58:52.569Z,1028.0
2022-10-06T06:03:52.534Z,1028.0
2022-10-06T06:08:52.542Z,1028.1
2022-10-06T06:18:52.562Z,1028.2
2022-10-06T06:23:52.543Z,1028.2
2022-10-06T06:28:52.592Z,1028.3
2022-10-06T06:33:52.383Z,1028.3
2022-10-06T06:38:52.592Z,1028.3
2022-10-06T06:43:52.428Z,1028.4
2022-10-06T06:48:52.603Z,1028.4
2022-10-06T06:53:52.426Z,1028.4
2022-10-06T06:58:55.109Z,1028.5
2022-10-06T07:03:57.266Z,1028.6
2022-10-06T07:08:52.645Z,1028.6
2022-10-06T07:13:53.989Z,1028.7
2022-10-06T07:18:52.791Z,1028.7
2022-10-06T07:23:52.489Z,1028.8
2022-10-06T07:28:52.682Z,1028.8
2022-10-06T07:33:54.317Z,1028.9
2022-10-06T07:38:52.803Z,1028.9
2022-10-06T07:43:52.911Z,1029.0
2022-10-06T07:48:52.827Z,1029.0
2022-10-06T07:53:52.726Z,1029.1
2022-10-06T07:58:52.919Z,1029.1
2022-10-06T08:03:52.808Z,1029.2
2022-10-06T08:08:53.495Z,1029.2
2022-10-06T08:13:52.948Z,1029.2
2022-10-06T08:18:53.319Z,1029.2
2022-10-06T08:23:53.118Z,1029.3
2022-10-06T08:28:53.388Z,1029.3
2022-10-06T08:33:53.345Z,1029.4
2022-10-06T08:38:53.630Z,1029.4
2022-10-06T08:43:53.618Z,1029.4
2022-10-06T08:48:53.933Z,1029.4
2022-10-06T08:53:53.891Z,1029.4
2022-10-06T08:58:54.209Z,1029.4
2022-10-06T09:08:54.510Z,1029.4
2022-10-06T09:13:54.508Z,1029.4
2022-10-06T09:19:08.303Z,1029.5
2022-10-06T09:23:54.938Z,1029.5
2022-10-06T09:28:55.310Z,1029.5
2022-10-06T09:33:55.337Z,1029.6
2022-10-06T09:38:55.682Z,1029.6
2022-10-06T09:43:55.759Z,1029.7
2022-10-06T09:48:56.114Z,1029.6
2022-10-06T09:53:56.229Z,1029.7
2022-10-06T09:58:56.603Z,1029.7
2022-10-06T10:04:18.952Z,1029.8
2022-10-06T10:08:57.058Z,1029.8
2022-10-06T10:13:57.155Z,1029.8
2022-10-06T10:18:57.607Z,1029.8
2022-10-06T10:23:57.878Z,1029.7
2022-10-06T10:28:58.116Z,1029.8
2022-10-06T10:34:11.881Z,1029.7
2022-10-06T10:38:58.811Z,1029.7
2022-10-06T10:44:03.270Z,1029.6
2022-10-06T10:48:59.341Z,1029.6
2022-10-06T10:53:59.310Z,1029.6
2022-10-06T10:58:59.760Z,1029.6
2022-10-06T11:03:59.881Z,1029.5
2022-10-06T11:09:00.353Z,1029.5
2022-10-06T11:14:00.469Z,1029.5
2022-10-06T11:19:00.926Z,1029.4
2022-10-06T11:24:01.121Z,1029.4
2022-10-06T11:29:01.545Z,1029.4
2022-10-06T11:39:02.206Z,1029.3
2022-10-06T11:44:02.356Z,1029.2
2022-10-06T11:49:03.500Z,1029.1
2022-10-06T11:54:03.030Z,1029.1
2022-10-06T11:59:03.539Z,1029.1
2022-10-06T12:04:03.728Z,1029.0
2022-10-06T12:19:04.927Z,1028.9
2022-10-06T12:24:05.227Z,1029.0
2022-10-06T12:29:05.679Z,1028.9
2022-10-06T12:34:06.083Z,1028.9
2022-10-06T12:39:06.456Z,1028.8
2022-10-06T12:48:08.712Z,1028.8
2022-10-06T12:49:07.237Z,1028.8
2022-10-06T12:54:07.591Z,1028.8
2022-10-06T12:59:08.025Z,1028.7
2022-10-06T13:04:08.429Z,1028.6
2022-10-06T13:19:09.634Z,1028.6
2022-10-06T13:24:10.055Z,1028.5
2022-10-06T13:29:10.438Z,1028.4
2022-10-06T13:34:12.891Z,1028.4
2022-10-06T13:39:11.252Z,1028.3
2022-10-06T13:44:11.642Z,1028.4
2022-10-06T13:54:12.527Z,1028.5
2022-10-06T13:59:12.746Z,1028.4
2022-10-06T14:04:13.114Z,1028.4
2022-10-06T14:09:13.406Z,1028.4
2022-10-06T14:14:13.781Z,1028.3
2022-10-06T14:19:14.084Z,1028.2
2022-10-06T14:24:14.497Z,1028.2
2022-10-06T14:29:14.911Z,1028.2
2022-10-06T14:34:15.296Z,1028.2
2022-10-06T14:39:15.670Z,1028.2
2022-10-06T14:44:15.973Z,1028.1
2022-10-06T14:54:16.686Z,1028.0
2022-10-06T14:59:17.343Z,1028.0
2022-10-06T15:04:17.413Z,1027.9
2022-10-06T15:09:17.735Z,1027.9
2022-10-06T15:14:20.556Z,1027.9
2022-10-06T15:19:18.721Z,1027.9
2022-10-06T15:24:18.907Z,1027.8
2022-10-06T15:29:21.556Z,1027.8
2022-10-06T15:34:19.591Z,1027.7
2022-10-06T15:39:21.937Z,1027.6
2022-10-06T15:44:20.260Z,1027.6
2022-10-06T15:49:20.607Z,1027.6
2022-10-06T15:54:20.961Z,1027.5
2022-10-06T15:59:21.333Z,1027.5
2022-10-06T16:09:21.974Z,1027.5
2022-10-06T16:14:22.346Z,1027.5
2022-10-06T16:19:22.673Z,1027.5
2022-10-06T16:24:22.968Z,1027.4
2022-10-06T16:29:23.289Z,1027.3
2022-10-06T16:34:23.614Z,1027.3
2022-10-06T16:39:25.933Z,1027.3
2022-10-06T16:44:24.288Z,1027.3
2022-10-06T16:49:24.722Z,1027.3
2022-10-06T16:54:24.918Z,1027.2
2022-10-06T16:59:25.237Z,1027.2
2022-10-06T17:04:25.664Z,1027.3
2022-10-06T17:09:25.837Z,1027.2
2022-10-06T17:14:28.259Z,1027.2
2022-10-06T17:19:26.461Z,1027.3
2022-10-06T17:24:26.764Z,1027.3
2022-10-06T17:29:27.047Z,1027.3
2022-10-06T17:34:31.962Z,1027.3
2022-10-06T17:39:27.671Z,1027.4
2022-10-06T17:44:27.966Z,1027.4
2022-10-06T17:49:28.331Z,1027.3
2022-10-06T17:54:28.599Z,1027.4
2022-10-06T17:59:28.750Z,1027.4
2022-10-06T18:04:29.169Z,1027.4
2022-10-06T18:09:31.883Z,1027.4
2022-10-06T18:14:29.612Z,1027.4
2022-10-06T18:24:30.096Z,1027.5
2022-10-06T18:29:30.354Z,1027.4
2022-10-06T18:59:31.847Z,1027.3
2022-10-06T19:04:32.029Z,1027.3
2022-10-06T19:09:34.295Z,1027.3
2022-10-06T19:14:32.475Z,1027.3
2022-10-06T19:19:32.634Z,1027.3
2022-10-06T19:24:32.882Z,1027.3
2022-10-06T19:29:33.098Z,1027.3
2022-10-06T19:34:33.459Z,1027.3
2022-10-06T19:39:33.675Z,1027.2
2022-10-06T19:44:33.871Z,1027.2
2022-10-06T19:49:33.974Z,1027.3
2022-10-06T19:54:34.175Z,1027.3
2022-10-06T19:59:34.342Z,1027.3
2022-10-06T20:04:34.679Z,1027.3
2022-10-06T20:09:36.706Z,1027.3
2022-10-06T20:14:36.132Z,1027.2
2022-10-06T20:19:35.127Z,1027.2
2022-10-06T20:24:35.294Z,1027.3
2022-10-06T20:29:35.573Z,1027.2
2022-10-06T20:34:35.601Z,1027.2
2022-10-06T20:39:35.783Z,1027.2
2022-10-06T20:49:36.036Z,1027.1
2022-10-06T20:59:36.344Z,1027.1
2022-10-06T21:04:36.653Z,1027.1
2022-10-06T21:09:36.747Z,1027.1
2022-10-06T21:14:36.900Z,1027.1
2022-10-06T21:19:39.103Z,1027.1
2022-10-06T21:24:37.276Z,1027.0
2022-10-06T21:29:37.398Z,1026.9
2022-10-06T21:34:37.559Z,1026.8
2022-10-06T21:39:37.758Z,1026.8
2022-10-06T21:44:37.765Z,1026.8
2022-10-06T21:49:37.876Z,1026.7
2022-10-06T21:54:37.989Z,1026.8
2022-10-06T21:59:38.125Z,1026.7
2022-10-06T22:04:38.266Z,1026.7
2022-10-06T22:09:38.349Z,1026.7
2022-10-06T22:14:38.461Z,1026.5
2022-10-06T22:19:38.623Z,1026.5
2022-10-06T22:24:38.789Z,1026.4
2022-10-06T22:29:38.964Z,1026.4
2022-10-06T22:34:39.064Z,1026.3
2022-10-06T22:39:39.211Z,1026.2
2022-10-06T22:49:39.880Z,1026.1
2022-10-06T22:54:39.617Z,1026.0
2022-10-06T22:59:39.780Z,1026.0
2022-10-06T23:04:39.941Z,1026.0
2022-10-06T23:09:42.003Z,1026.0
2022-10-06T23:14:40.186Z,1026.0
2022-10-06T23:19:40.305Z,1025.9
2022-10-06T23:29:40.839Z,1025.8
2022-10-06T23:34:40.800Z,1025.7
2022-10-06T23:39:40.881Z,1025.6
2022-10-06T23:44:41.030Z,1025.6
2022-10-06T23:49:41.139Z,1025.6
2022-10-06T23:54:41.285Z,1025.5
2022-10-06T23:59:41.440Z,1025.5
